Time;durP1;ratioP1;P1;durP2;ratioP2;P2;SDS_P1;SDS_P2;PMS_P1;PMS_P2;Temp;Humidity;BMP_temperature;BMP_pressure;BME280_temperature;BME280_humidity;BME280_pressure;Samples;Min_cycle;Max_cycle;Signal;HPM_P1;HPM_P2
2021/04/26 00:00:31;;;;;;;11.78;5.90;;;;;;;0.54;77.31;100844.41;714649;1199;114862;-73
2021/04/26 00:15:52;;;;;;;11.80;5.00;;;;;;;0.44;79.84;100843.92;714034;1199;114748;-73
2021/04/26 00:31:13;;;;;;;8.20;4.25;;;;;;;0.55;81.08;100848.67;713937;1202;114679;-72
2021/04/26 00:46:33;;;;;;;7.83;4.30;;;;;;;0.44;82.42;100831.01;714545;1199;113299;-73
2021/04/26 01:01:54;;;;;;;15.48;5.95;;;;;;;0.56;83.72;100814.22;714335;1199;114839;-73
2021/04/26 01:17:25;;;;;;;728.30;201.87;;;;;;;0.45;83.15;100825.78;714263;1199;113589;-73
2021/04/26 01:33:00;;;;;;;16.37;8.17;;;;;;;0.39;85.33;100810.52;714295;1201;114139;-73
2021/04/26 01:48:22;;;;;;;20.75;10.68;;;;;;;0.13;85.81;100802.00;714307;1202;113758;-72
2021/04/26 02:03:49;;;;;;;7.48;3.90;;;;;;;-0.13;86.41;100796.91;714621;1202;114467;-72
2021/04/26 02:19:12;;;;;;;6.00;3.55;;;;;;;-0.27;87.09;100787.92;714798;1202;116102;-72
2021/04/26 02:34:44;;;;;;;7.23;3.20;;;;;;;-0.44;89.74;100787.67;714865;1176;115014;-72
2021/04/26 02:50:07;;;;;;;6.65;3.45;;;;;;;-0.28;90.79;100782.83;713839;1200;114939;-72
2021/04/26 03:05:27;;;;;;;12.30;4.67;;;;;;;-0.11;91.59;100779.66;714227;1202;114154;-72
2021/04/26 03:20:49;;;;;;;9.10;4.10;;;;;;;-0.09;91.75;100767.53;714380;1202;115272;-72
2021/04/26 03:36:10;;;;;;;11.50;5.90;;;;;;;-0.28;91.95;100768.19;713944;1200;114959;-71
2021/04/26 03:51:30;;;;;;;9.85;5.83;;;;;;;-0.28;90.91;100778.50;714469;1202;113766;-76
2021/04/26 04:06:51;;;;;;;13.50;5.50;;;;;;;-0.23;92.96;100770.63;713958;1199;114590;-78
2021/04/26 04:22:12;;;;;;;25.43;8.23;;;;;;;0.04;93.10;100766.22;714554;1200;114072;-72
2021/04/26 04:37:32;;;;;;;16.90;7.80;;;;;;;0.39;93.98;100760.63;714625;1199;114991;-72
2021/04/26 04:52:53;;;;;;;23.25;9.18;;;;;;;0.74;93.63;100759.27;714546;1199;114860;-73
2021/04/26 05:08:13;;;;;;;15.50;7.40;;;;;;;1.13;93.21;100750.80;717156;1164;115249;-71
2021/04/26 05:23:34;;;;;;;15.40;6.83;;;;;;;1.65;92.86;100765.05;713985;1199;114885;-71
2021/04/26 05:38:54;;;;;;;11.97;6.60;;;;;;;2.24;92.43;100767.63;714400;1203;114150;-70
2021/04/26 05:54:15;;;;;;;15.25;7.38;;;;;;;2.90;91.12;100764.52;714508;1177;113629;-71
2021/04/26 06:09:35;;;;;;;19.45;9.05;;;;;;;3.66;87.81;100764.20;714051;1200;114026;-74
2021/04/26 06:24:55;;;;;;;5.88;3.90;;;;;;;3.94;84.00;100762.77;713952;1203;113849;-73
2021/04/26 06:40:16;;;;;;;43.73;16.03;;;;;;;4.61;82.71;100757.45;713978;1199;114804;-74
2021/04/26 06:55:36;;;;;;;14.47;5.23;;;;;;;5.63;79.87;100755.98;714018;1203;114995;-77
2021/04/26 07:10:57;;;;;;;13.40;6.40;;;;;;;6.22;74.95;100749.86;714134;1200;114655;-74
2021/04/26 07:26:17;;;;;;;27.60;14.23;;;;;;;7.29;67.81;100754.29;714380;1178;113725;-74
2021/04/26 07:41:38;;;;;;;20.10;9.50;;;;;;;7.19;63.09;100745.39;714077;1199;114395;-74
2021/04/26 07:56:59;;;;;;;35.58;11.35;;;;;;;7.34;59.10;100741.77;714069;1200;114977;-76
2021/04/26 08:12:20;;;;;;;14.80;6.13;;;;;;;7.26;53.24;100741.45;714075;1199;114263;-75
2021/04/26 08:27:41;;;;;;;25.83;12.20;;;;;;;9.78;54.20;100729.48;714316;1200;115012;-74
2021/04/26 08:43:06;;;;;;;8.85;6.78;;;;;;;7.89;48.99;100739.78;714223;1203;113737;-78
2021/04/26 08:58:27;;;;;;;8.45;4.20;;;;;;;10.13;51.11;100712.75;714647;1200;113303;-77
2021/04/26 09:13:49;;;;;;;15.55;9.60;;;;;;;10.13;49.12;100732.91;714798;1202;114366;-77
2021/04/26 09:29:15;;;;;;;8.87;4.03;;;;;;;11.97;47.74;100723.89;714591;1200;115296;-77
2021/04/26 09:44:35;;;;;;;12.45;5.95;;;;;;;11.13;48.02;100716.13;714436;1199;114953;-79
2021/04/26 09:59:58;;;;;;;20.50;9.98;;;;;;;9.72;46.62;100710.78;714416;1203;114070;-87
2021/04/26 10:15:26;;;;;;;8.75;4.35;;;;;;;9.27;46.22;100686.22;714604;1176;114229;-81
2021/04/26 10:30:58;;;;;;;4.60;2.80;;;;;;;11.20;47.59;100687.56;714964;1200;114789;-88
2021/04/26 10:46:20;;;;;;;8.55;3.70;;;;;;;13.20;46.42;100666.44;714155;1203;113842;-86
2021/04/26 11:01:52;;;;;;;10.43;7.10;;;;;;;13.42;44.41;100665.30;714314;1203;114814;-85
2021/04/26 11:17:13;;;;;;;12.63;4.18;;;;;;;10.44;47.09;100688.55;714310;1200;114782;-86
2021/04/26 11:32:34;;;;;;;12.47;5.97;;;;;;;9.87;46.78;100680.77;714415;1200;115231;-90
2021/04/26 11:47:55;;;;;;;8.93;3.90;;;;;;;10.61;49.18;100672.25;716552;1200;115536;-88
2021/04/26 12:03:15;;;;;;;6.50;2.70;;;;;;;11.53;50.75;100698.79;714060;1199;113802;-73
2021/04/26 12:18:38;;;;;;;5.80;3.17;;;;;;;11.74;52.42;100710.08;714553;1202;113819;-73
2021/04/26 12:34:08;;;;;;;17.37;8.23;;;;;;;12.50;53.85;100700.88;714074;1204;113961;-73
2021/04/26 12:49:29;;;;;;;11.40;5.50;;;;;;;12.60;51.96;100678.03;713950;1199;114517;-71
2021/04/26 13:04:50;;;;;;;15.33;6.98;;;;;;;13.31;50.07;100660.97;714155;1202;114603;-73
2021/04/26 13:20:22;;;;;;;6.87;3.80;;;;;;;13.59;49.49;100637.34;714031;1177;113991;-71
2021/04/26 13:35:43;;;;;;;10.98;4.63;;;;;;;14.06;46.99;100612.62;714069;1202;115270;-73
2021/04/26 13:51:04;;;;;;;12.63;5.13;;;;;;;14.31;43.80;100595.20;714078;1200;114460;-72
2021/04/26 14:06:24;;;;;;;35.00;16.70;;;;;;;13.01;43.77;100598.83;713916;1199;115583;-73
2021/04/26 14:21:45;;;;;;;14.63;6.78;;;;;;;25.27;37.91;100582.72;714092;1200;115227;-73
2021/04/26 14:37:06;;;;;;;28.35;15.63;;;;;;;23.57;35.89;100570.16;714429;1199;114138;-73
2021/04/26 14:52:27;;;;;;;9.33;5.30;;;;;;;11.89;42.01;100578.27;714583;1199;114627;-72
2021/04/26 15:07:47;;;;;;;22.33;10.87;;;;;;;8.40;51.76;100620.33;714351;1199;114248;-73
2021/04/26 15:23:09;;;;;;;26.90;11.40;;;;;;;6.18;62.54;100647.60;714528;1200;114247;-72
2021/04/26 15:38:31;;;;;;;21.43;11.80;;;;;;;5.47;65.57;100664.97;714403;1199;114157;-71
2021/04/26 15:53:51;;;;;;;19.08;9.35;;;;;;;5.35;66.17;100632.73;714151;1199;114105;-70
2021/04/26 16:09:12;;;;;;;117.10;36.75;;;;;;;5.83;69.81;100588.98;714204;1199;114307;-73
2021/04/26 16:24:33;;;;;;;52.93;25.55;;;;;;;6.38;70.96;100578.56;714483;1200;114452;-70
2021/04/26 16:39:53;;;;;;;78.97;29.67;;;;;;;7.19;69.11;100567.96;714989;1199;115051;-72
2021/04/26 16:55:14;;;;;;;36.80;16.10;;;;;;;7.18;69.68;100568.89;714498;1199;113725;-70
2021/04/26 17:10:35;;;;;;;31.13;14.37;;;;;;;7.11;70.61;100568.48;714405;1200;114101;-72
2021/04/26 17:25:55;;;;;;;59.85;21.77;;;;;;;6.76;70.95;100564.74;715828;1199;114661;-72
2021/04/26 17:41:16;;;;;;;219.98;98.58;;;;;;;6.11;73.54;100573.38;715111;1199;114167;-72
2021/04/26 17:56:36;;;;;;;75.10;33.38;;;;;;;5.69;73.60;100569.94;714280;1202;114771;-73
2021/04/26 18:11:58;;;;;;;53.95;33.33;;;;;;;5.31;74.44;100574.83;714282;1200;114328;-72
2021/04/26 18:27:19;;;;;;;49.98;25.28;;;;;;;4.88;74.92;100579.20;714673;1200;114115;-70
2021/04/26 18:42:41;;;;;;;39.05;18.65;;;;;;;4.48;76.23;100585.80;714989;1179;113830;-70
2021/04/26 18:58:02;;;;;;;84.47;35.10;;;;;;;4.01;77.95;100597.11;715117;1200;115253;-72
2021/04/26 19:13:22;;;;;;;77.75;31.03;;;;;;;3.63;79.09;100595.72;715476;1200;115028;-72
2021/04/26 19:28:42;;;;;;;73.18;29.10;;;;;;;3.50;79.90;100605.09;720224;1201;114259;-69
2021/04/26 19:44:03;;;;;;;63.38;23.95;;;;;;;3.35;81.03;100609.30;714612;1199;115165;-70
2021/04/26 19:59:23;;;;;;;48.98;20.80;;;;;;;3.06;82.65;100609.09;714730;1199;114478;-71
2021/04/26 20:14:44;;;;;;;54.20;23.48;;;;;;;2.83;82.71;100607.66;716403;1199;114197;-71
2021/04/26 20:30:07;;;;;;;106.35;36.75;;;;;;;2.73;84.21;100602.12;715379;1199;115050;-71
2021/04/26 20:45:28;;;;;;;55.20;22.35;;;;;;;2.71;84.67;100624.66;714850;1176;114446;-71
2021/04/26 21:00:50;;;;;;;34.13;14.20;;;;;;;2.19;83.94;100624.61;714454;1203;115031;-70
2021/04/26 21:16:11;;;;;;;64.08;24.00;;;;;;;2.11;85.04;100631.00;714041;1176;114583;-72
2021/04/26 21:31:31;;;;;;;44.78;20.18;;;;;;;2.19;87.43;100634.96;714073;1200;114664;-70
2021/04/26 21:46:56;;;;;;;36.43;16.23;;;;;;;2.20;86.90;100619.34;713916;1203;113960;-70
2021/04/26 22:02:16;;;;;;;26.07;11.77;;;;;;;2.00;87.86;100618.54;714293;1202;113808;-70
2021/04/26 22:17:37;;;;;;;26.10;13.90;;;;;;;1.83;88.55;100632.28;715034;1200;114295;-70
2021/04/26 22:32:59;;;;;;;29.43;13.63;;;;;;;1.64;88.61;100628.86;714704;1192;114281;-70
2021/04/26 22:48:20;;;;;;;25.93;11.23;;;;;;;1.27;88.78;100641.66;714552;1199;114887;-71
2021/04/26 23:03:41;;;;;;;27.65;13.18;;;;;;;1.45;89.35;100631.41;715240;1199;114212;-70
2021/04/26 23:19:02;;;;;;;38.73;15.90;;;;;;;1.06;88.37;100622.76;714636;1200;114119;-69
2021/04/26 23:34:22;;;;;;;29.87;12.80;;;;;;;0.83;89.92;100609.08;714775;1202;115218;-70
2021/04/26 23:49:43;;;;;;;29.03;11.90;;;;;;;0.75;90.99;100603.41;715211;1177;114627;-69
